This is the latest recevied weather packets stored in our database for station/object OH2NJR. If no packets are shown the sender has not sent any weather packets the latest 10 day(s).
| Time | Temp. | Humidity | Pressure | Rain* | Wind** | Luminosity | Snow |
|---|---|---|---|---|---|---|---|
| 1777788529 | 10° C | 70% | 1006.4 hPa | 0 mm | - | - | - |
| 1777788523 | 10° C | 70% | 1006.4 hPa | 0 mm | - | - | - |
| 1777787473 | 8.89° C | 74% | 1006.2 hPa | 0 mm | - | - | - |
| 1777786443 | 8.89° C | 75% | 1006.1 hPa | 0 mm | - | - | - |
| 1777785428 | 8.33° C | 77% | 1006.1 hPa | 0 mm | - | - | - |
| 1777784288 | 6.67° C | 87% | 1005.7 hPa | 0 mm | - | - | - |
| 1777783308 | 6.11° C | 87% | 1005.7 hPa | 0 mm | - | - | - |
| 1777782193 | 6.11° C | 88% | 1005.3 hPa | 0 mm | - | - | - |
| 1777781028 | 6.11° C | 88% | 1005.7 hPa | 0 mm | - | - | - |
| 1777779888 | 6.11° C | 88% | 1005.7 hPa | 0 mm | - | - | - |
| 1777778888 | 6.11° C | 87% | 1005.8 hPa | 0 mm | - | - | - |
| 1777777863 | 6.11° C | 87% | 1005.6 hPa | 0 mm | - | - | - |
| 1777776678 | 6.11° C | 87% | 1005.6 hPa | 0 mm | - | - | - |
| 1777775633 | 6.11° C | 86% | 1005.4 hPa | 0 mm | - | - | - |
| 1777774453 | 6.67° C | 86% | 1005.7 hPa | 0 mm | - | - | - |
| 1777773413 | 6.67° C | 85% | 1005.7 hPa | 0 mm | - | - | - |
| 1777772328 | 6.67° C | 85% | 1005.7 hPa | 0 mm | - | - | - |
| 1777771358 | 6.67° C | 85% | 1005.7 hPa | 0 mm | - | - | - |
| 1777770233 | 6.67° C | 82% | 1005.6 hPa | 0 mm | - | - | - |
| 1777769078 | 7.22° C | 81% | 1006.4 hPa | 0 mm | - | - | - |
| 1777768034 | 6.67° C | 81% | 1006.6 hPa | 0 mm | - | - | - |
| 1777768028 | 6.67° C | 81% | 1006.6 hPa | 0 mm | - | - | - |
| 1777766978 | 7.22° C | 81% | 1006.6 hPa | 0 mm | - | - | - |
| 1777765853 | 7.22° C | 80% | 1006.8 hPa | 0 mm | - | - | - |
| 1777764778 | 7.22° C | 78% | 1006.9 hPa | 0 mm | - | - | - |
* Rain latest hour (hover to see other rain measurements)
** Current wind speed in m/s (hover to see current wind gust speed)